Time;durP1;ratioP1;P1;durP2;ratioP2;P2;SDS_P1;SDS_P2;PMS_P1;PMS_P2;Temp;Humidity;BMP_temperature;BMP_pressure;BME280_temperature;BME280_humidity;BME280_pressure;Samples;Min_cycle;Max_cycle;Signal;HPM_P1;HPM_P2
2022/06/18 00:00:41;;;;;;;0.60;0.60;;;;;;;19.58;60.13;96142.84;4396015;32;20188;-62
2022/06/18 00:03:10;;;;;;;0.20;0.20;;;;;;;19.47;60.75;96144.34;4394855;32;20192;-61
2022/06/18 00:05:37;;;;;;;0.40;0.40;;;;;;;19.40;61.30;96134.09;4395800;32;20192;-61
2022/06/18 00:08:06;;;;;;;1.00;1.00;;;;;;;19.37;62.34;96125.91;4388229;32;20188;-62
2022/06/18 00:10:33;;;;;;;1.40;0.93;;;;;;;19.40;61.56;96119.88;4383486;32;20235;-62
2022/06/18 00:16:00;;;;;;;0.20;0.20;;;;;;;19.23;62.36;96115.41;4399438;32;20300;-62
2022/06/18 00:18:26;;;;;;;0.67;0.67;;;;;;;19.14;62.37;96117.38;4395876;32;20248;-61
2022/06/18 00:20:52;;;;;;;0.40;0.40;;;;;;;19.19;62.28;96101.03;4397945;32;20192;-62
2022/06/18 00:23:18;;;;;;;0.87;0.87;;;;;;;19.22;61.74;96103.88;4409822;32;20245;-62
2022/06/18 00:25:50;;;;;;;0.77;0.77;;;;;;;19.22;62.33;96103.88;4398864;32;20249;-62
2022/06/18 00:28:22;;;;;;;0.47;0.47;;;;;;;19.23;61.69;96100.06;4398576;32;20185;-62
2022/06/18 00:30:50;;;;;;;0.47;0.47;;;;;;;19.10;62.04;96111.88;4395680;32;20291;-62
2022/06/18 00:33:17;;;;;;;1.17;1.10;;;;;;;19.14;62.63;96115.47;4392267;32;20204;-62
2022/06/18 00:35:45;;;;;;;0.63;0.63;;;;;;;19.16;62.08;96115.16;4393294;32;20191;-62
2022/06/18 00:38:27;;;;;;;0.50;0.50;;;;;;;19.15;62.20;96111.66;4397282;32;20196;-62
2022/06/18 00:40:53;;;;;;;0.90;0.90;;;;;;;19.04;62.92;96113.19;4404645;32;20187;-62
2022/06/18 00:43:25;;;;;;;0.43;0.43;;;;;;;18.95;62.91;96115.13;4399883;32;20249;-62
2022/06/18 00:45:55;;;;;;;0.80;0.80;;;;;;;19.00;62.75;96111.47;4407083;32;20184;-62
2022/06/18 00:48:27;;;;;;;0.43;0.43;;;;;;;19.01;63.57;96110.38;4396773;32;20268;-62
2022/06/18 00:51:02;;;;;;;0.37;0.37;;;;;;;18.97;63.11;96110.22;4395352;32;20200;-61
2022/06/18 00:53:42;;;;;;;0.87;0.87;;;;;;;18.85;63.39;96112.84;4398346;32;20191;-62
2022/06/18 00:56:38;;;;;;;0.63;0.63;;;;;;;18.97;63.54;96104.84;4400356;32;20191;-63
2022/06/18 00:59:17;;;;;;;0.57;0.57;;;;;;;18.88;63.72;96106.81;4400655;32;20197;-62
2022/06/18 01:01:47;;;;;;;0.53;0.53;;;;;;;18.91;63.29;96108.88;4386230;32;20247;-62
2022/06/18 01:04:34;;;;;;;1.13;0.63;;;;;;;18.89;63.49;96108.41;4388020;32;20192;-62
2022/06/18 01:07:06;;;;;;;0.57;0.57;;;;;;;18.96;62.66;96110.53;4396691;32;23389;-62
2022/06/18 01:09:34;;;;;;;0.63;0.63;;;;;;;18.84;63.25;96108.56;4395133;32;20202;-62
2022/06/18 01:12:00;;;;;;;0.57;0.57;;;;;;;18.80;63.11;96110.34;4392312;32;20287;-62
2022/06/18 01:14:27;;;;;;;8.53;0.63;;;;;;;18.81;63.43;96101.16;4388422;32;20215;-62
2022/06/18 01:16:56;;;;;;;0.70;0.70;;;;;;;18.75;63.76;96099.78;4397122;32;20192;-62
2022/06/18 01:19:31;;;;;;;0.53;0.53;;;;;;;18.76;63.50;96106.72;4391674;32;20180;-62
2022/06/18 01:22:03;;;;;;;0.77;0.77;;;;;;;18.65;63.81;96103.63;4390068;32;20214;-62
2022/06/18 01:24:38;;;;;;;0.70;0.70;;;;;;;18.60;64.39;96103.03;4418136;32;20195;-61
2022/06/18 01:27:05;;;;;;;1.03;1.00;;;;;;;18.65;64.19;96102.84;4400129;32;20196;-62
2022/06/18 01:29:32;;;;;;;2.20;0.50;;;;;;;18.65;64.11;96111.69;4394208;32;20334;-62
2022/06/18 01:32:00;;;;;;;0.50;0.50;;;;;;;18.66;64.47;96113.28;4398906;32;20193;-61
2022/06/18 01:34:30;;;;;;;0.43;0.43;;;;;;;18.51;64.51;96113.78;4397716;32;20192;-62
2022/06/18 01:36:59;;;;;;;0.30;0.30;;;;;;;18.53;65.20;96106.19;4408153;32;20188;-62
2022/06/18 01:39:34;;;;;;;0.40;0.40;;;;;;;18.58;64.71;96113.28;4417792;32;20207;-62
2022/06/18 01:42:08;;;;;;;0.40;0.40;;;;;;;18.54;64.97;96119.31;4397615;32;20397;-62
2022/06/18 01:44:46;;;;;;;0.60;0.60;;;;;;;18.49;64.83;96103.38;4381844;32;20184;-62
2022/06/18 01:47:29;;;;;;;0.63;0.63;;;;;;;18.42;64.83;96108.47;4395066;32;20188;-62
2022/06/18 01:50:32;;;;;;;0.30;0.30;;;;;;;18.49;65.08;96108.75;4399000;32;20188;-61
2022/06/18 01:53:06;;;;;;;0.57;0.57;;;;;;;18.51;65.12;96101.13;4395904;32;20192;-61
2022/06/18 01:55:37;;;;;;;0.70;0.70;;;;;;;18.47;65.28;96102.91;4414543;32;20179;-61
2022/06/18 01:58:11;;;;;;;0.43;0.43;;;;;;;18.50;65.18;96093.41;4401142;32;20196;-62
2022/06/18 02:00:40;;;;;;;0.60;0.60;;;;;;;18.41;65.45;96090.78;4393320;32;20176;-61
2022/06/18 02:03:06;;;;;;;0.40;0.40;;;;;;;18.37;65.84;96089.03;4391263;32;20192;-62
2022/06/18 02:05:33;;;;;;;0.40;0.40;;;;;;;18.38;65.68;96091.41;4399559;32;20203;-62
2022/06/18 02:07:59;;;;;;;0.63;0.63;;;;;;;18.30;66.14;96083.37;4417705;32;20228;-62
2022/06/18 02:10:41;;;;;;;0.27;0.27;;;;;;;18.29;65.73;96085.28;4393421;32;20180;-62
2022/06/18 02:13:07;;;;;;;0.30;0.30;;;;;;;18.37;65.73;96084.47;4398785;32;20188;-61
2022/06/18 02:15:38;;;;;;;0.60;0.60;;;;;;;18.39;65.76;96076.88;4404469;32;20192;-61
2022/06/18 02:18:07;;;;;;;0.50;0.50;;;;;;;18.28;66.18;96073.00;4397550;32;20188;-62
2022/06/18 02:20:39;;;;;;;0.60;0.60;;;;;;;18.32;66.56;96075.78;4387758;32;20206;-62
2022/06/18 02:23:04;;;;;;;0.70;0.70;;;;;;;18.29;65.87;96071.84;4393382;32;20263;-62
2022/06/18 02:25:31;;;;;;;0.50;0.50;;;;;;;18.41;65.50;96073.84;4394345;32;20274;-61
2022/06/18 02:28:01;;;;;;;0.77;0.77;;;;;;;18.40;65.78;96073.06;4395587;32;20202;-62
2022/06/18 02:30:31;;;;;;;0.60;0.60;;;;;;;18.35;65.73;96070.56;4399349;32;20181;-61
2022/06/18 02:33:15;;;;;;;0.37;0.37;;;;;;;18.34;65.49;96066.31;4395860;32;20207;-61
2022/06/18 02:35:41;;;;;;;0.37;0.37;;;;;;;18.27;66.29;96070.63;4400986;32;20191;-62
2022/06/18 02:38:15;;;;;;;0.87;0.87;;;;;;;18.33;65.57;96074.69;4393631;32;20195;-61
2022/06/18 02:40:40;;;;;;;0.57;0.57;;;;;;;18.36;65.55;96074.03;4386156;32;20180;-62
2022/06/18 02:43:06;;;;;;;0.40;0.40;;;;;;;18.34;65.76;96073.56;4416459;32;20195;-61
2022/06/18 02:45:32;;;;;;;0.60;0.60;;;;;;;18.25;66.37;96065.56;4389864;32;20286;-61
2022/06/18 02:47:59;;;;;;;0.77;0.77;;;;;;;18.27;65.92;96071.41;4386984;32;20180;-61
2022/06/18 02:50:29;;;;;;;0.73;0.73;;;;;;;18.33;65.64;96067.41;4402879;32;20181;-61
2022/06/18 02:53:00;;;;;;;0.90;0.90;;;;;;;18.33;65.60;96066.63;4399522;32;20185;-61
2022/06/18 02:55:30;;;;;;;0.67;0.67;;;;;;;18.18;65.59;96070.66;4402167;32;20199;-61
2022/06/18 02:58:22;;;;;;;0.50;0.50;;;;;;;18.22;66.10;96062.75;4406491;32;20191;-62
2022/06/18 03:01:22;;;;;;;0.60;0.60;;;;;;;18.08;66.50;96071.03;4396071;32;20199;-61
2022/06/18 03:03:51;;;;;;;0.60;0.60;;;;;;;18.18;66.38;96066.06;4391156;32;20188;-61
2022/06/18 03:06:25;;;;;;;0.47;0.47;;;;;;;18.11;66.34;96071.16;4397430;32;20203;-62
2022/06/18 03:08:51;;;;;;;1.10;1.10;;;;;;;18.13;66.95;96068.13;4396536;32;20224;-62
2022/06/18 03:12:08;;;;;;;0.50;0.50;;;;;;;18.02;66.39;96073.09;4401978;32;20188;-61
2022/06/18 03:14:26;;;;;;;0.70;0.70;;;;;;;18.11;66.70;96071.16;4399256;32;20204;-61
2022/06/18 03:16:52;;;;;;;0.50;0.50;;;;;;;18.07;66.46;96069.44;4390483;32;20184;-61
2022/06/18 03:19:29;;;;;;;0.40;0.40;;;;;;;18.06;66.61;96073.25;4405166;32;20271;-62
2022/06/18 03:22:02;;;;;;;0.73;0.60;;;;;;;18.03;66.84;96060.44;4393407;32;20179;-61
2022/06/18 03:24:27;;;;;;;0.63;0.63;;;;;;;18.07;66.30;96069.44;4390395;32;20180;-62
2022/06/18 03:27:08;;;;;;;2.47;0.57;;;;;;;18.02;67.19;96056.19;4403027;32;20237;-61
2022/06/18 03:29:34;;;;;;;0.63;0.63;;;;;;;17.93;66.51;96058.91;4393813;32;20188;-61
2022/06/18 03:32:03;;;;;;;0.67;0.67;;;;;;;18.06;66.93;96057.91;4397485;32;20235;-62
2022/06/18 03:34:28;;;;;;;0.40;0.40;;;;;;;18.00;66.65;96064.56;4388823;32;20223;-61
2022/06/18 03:36:54;;;;;;;0.63;0.63;;;;;;;17.91;67.34;96061.13;4399398;32;20195;-61
2022/06/18 03:39:19;;;;;;;2.77;1.17;;;;;;;18.06;66.75;96062.50;4400954;32;20202;-61
2022/06/18 03:41:44;;;;;;;0.20;0.20;;;;;;;17.99;67.28;96064.88;4394899;32;20188;-62
2022/06/18 03:44:11;;;;;;;0.70;0.70;;;;;;;17.99;67.51;96062.19;4403233;32;20189;-62
2022/06/18 03:46:39;;;;;;;0.57;0.57;;;;;;;17.98;66.89;96066.00;4398053;32;20204;-62
2022/06/18 03:49:06;;;;;;;0.60;0.60;;;;;;;17.98;66.66;96066.00;4393313;32;20212;-61
2022/06/18 03:51:47;;;;;;;0.47;0.47;;;;;;;18.01;67.28;96060.78;4390469;32;20276;-62
2022/06/18 03:54:13;;;;;;;0.90;0.90;;;;;;;17.94;67.17;96059.69;4394612;32;20191;-62
2022/06/18 03:56:39;;;;;;;1.13;0.60;;;;;;;17.82;67.68;96063.84;4396005;32;20269;-62
2022/06/18 03:59:06;;;;;;;0.63;0.63;;;;;;;17.93;67.66;96064.28;4414817;32;20255;-62
2022/06/18 04:01:36;;;;;;;0.70;0.70;;;;;;;17.83;67.79;96062.75;4398036;32;20180;-62
2022/06/18 04:04:01;;;;;;;0.60;0.60;;;;;;;17.93;67.46;96052.75;4410233;32;20415;-62
2022/06/18 04:06:58;;;;;;;0.33;0.33;;;;;;;18.00;67.52;96058.41;4400141;32;20236;-61
2022/06/18 04:09:23;;;;;;;0.70;0.70;;;;;;;18.01;67.67;96051.94;4402806;32;20184;-61
2022/06/18 04:11:49;;;;;;;0.60;0.60;;;;;;;17.95;67.66;96061.25;4403064;32;20215;-61
2022/06/18 04:14:14;;;;;;;0.33;0.33;;;;;;;17.98;67.50;96055.25;4397447;32;20192;-62
2022/06/18 04:17:18;;;;;;;0.50;0.50;;;;;;;17.98;67.34;96048.00;4399821;32;20185;-61
2022/06/18 04:19:43;;;;;;;0.60;0.60;;;;;;;17.98;66.64;96047.19;4387981;32;20251;-62
2022/06/18 04:22:09;;;;;;;0.70;0.70;;;;;;;18.07;67.28;96037.22;4394619;32;20216;-61
2022/06/18 04:24:35;;;;;;;1.17;0.80;;;;;;;18.01;67.85;96041.19;4401023;32;20236;-61
2022/06/18 04:27:01;;;;;;;1.13;0.70;;;;;;;17.96;68.07;96042.16;4391605;32;20289;-61
2022/06/18 04:29:28;;;;;;;0.93;0.93;;;;;;;18.05;67.43;96044.81;4412401;32;20210;-62
2022/06/18 04:31:54;;;;;;;0.53;0.53;;;;;;;18.08;67.30;96044.16;4402352;32;20272;-62
2022/06/18 04:34:19;;;;;;;0.63;0.63;;;;;;;18.02;67.83;96034.72;4405319;32;20255;-61
2022/06/18 04:36:46;;;;;;;0.60;0.60;;;;;;;18.02;67.96;96040.88;4390695;32;20203;-61
2022/06/18 04:39:13;;;;;;;0.30;0.30;;;;;;;18.08;67.61;96030.75;4409627;32;20278;-62
2022/06/18 04:41:39;;;;;;;0.57;0.57;;;;;;;18.02;67.57;96043.56;4389419;32;20193;-60
2022/06/18 04:44:05;;;;;;;0.50;0.50;;;;;;;18.03;67.78;96041.66;4409358;32;20192;-62
2022/06/18 04:46:37;;;;;;;0.63;0.63;;;;;;;18.15;67.68;96041.75;4395943;32;20328;-62
2022/06/18 04:49:02;;;;;;;0.50;0.50;;;;;;;18.28;66.27;96042.66;4401487;32;20183;-61
2022/06/18 04:52:04;;;;;;;0.63;0.53;;;;;;;18.24;67.10;96039.81;4396307;32;20197;-61
2022/06/18 04:54:29;;;;;;;0.73;0.73;;;;;;;18.16;67.41;96046.00;4353909;32;20228;-61
2022/06/18 04:56:54;;;;;;;0.23;0.23;;;;;;;18.23;67.02;96040.13;4394064;32;20202;-61
2022/06/18 04:59:21;;;;;;;0.43;0.43;;;;;;;18.27;67.22;96046.44;4396142;32;20200;-61
2022/06/18 05:01:59;;;;;;;0.47;0.47;;;;;;;18.31;66.92;96042.75;4408482;32;20207;-61
2022/06/18 05:04:24;;;;;;;0.20;0.20;;;;;;;18.41;67.11;96042.41;4396847;32;20212;-62
2022/06/18 05:06:51;;;;;;;0.37;0.37;;;;;;;18.44;67.12;96046.34;4396252;32;20211;-62
2022/06/18 05:09:18;;;;;;;0.90;0.50;;;;;;;18.52;66.95;96043.59;4407353;32;20202;-62
2022/06/18 05:11:44;;;;;;;0.50;0.50;;;;;;;18.55;66.32;96034.88;4397553;32;20181;-61
2022/06/18 05:14:09;;;;;;;0.77;0.77;;;;;;;18.60;66.50;96043.91;4407274;32;20235;-62
2022/06/18 05:16:42;;;;;;;1.17;1.07;;;;;;;18.61;67.09;96040.09;4399116;32;20203;-61
2022/06/18 05:19:30;;;;;;;0.40;0.40;;;;;;;18.61;66.52;96046.25;4399022;32;20176;-61
2022/06/18 05:21:55;;;;;;;0.40;0.40;;;;;;;18.73;66.43;96046.31;4403120;32;20238;-62
2022/06/18 05:24:22;;;;;;;0.50;0.50;;;;;;;18.81;66.48;96042.81;4417304;32;20189;-61
2022/06/18 05:26:53;;;;;;;0.47;0.47;;;;;;;18.84;66.41;96042.16;4406349;32;20185;-61
2022/06/18 05:29:21;;;;;;;0.47;0.47;;;;;;;18.94;65.85;96035.56;4383827;32;20249;-62
2022/06/18 05:32:04;;;;;;;0.53;0.53;;;;;;;18.98;65.97;96049.16;4397347;32;20204;-61
2022/06/18 05:34:30;;;;;;;0.70;0.70;;;;;;;19.02;65.79;96047.38;4400958;32;20192;-62
2022/06/18 05:37:01;;;;;;;0.23;0.23;;;;;;;19.08;66.46;96046.09;4396122;32;20219;-62
2022/06/18 05:39:27;;;;;;;0.20;0.20;;;;;;;19.10;66.30;96041.94;4390455;32;20200;-62
2022/06/18 05:41:55;;;;;;;0.50;0.50;;;;;;;19.12;66.40;96047.75;4405905;32;20192;-62
2022/06/18 05:44:21;;;;;;;0.90;0.90;;;;;;;19.17;66.00;96047.56;4398624;32;20200;-62
2022/06/18 05:47:16;;;;;;;0.50;0.50;;;;;;;19.26;65.09;96044.81;4393968;32;20180;-62
2022/06/18 05:49:42;;;;;;;0.87;0.83;;;;;;;19.30;65.64;96053.00;4393820;32;20198;-61
2022/06/18 05:52:08;;;;;;;0.40;0.40;;;;;;;19.46;65.06;96052.06;4395019;32;20188;-61
2022/06/18 05:54:35;;;;;;;0.70;0.70;;;;;;;19.50;63.64;96042.22;4396934;32;20188;-61
2022/06/18 05:57:33;;;;;;;0.33;0.33;;;;;;;19.61;64.82;96052.56;4393121;32;20304;-61
2022/06/18 06:00:07;;;;;;;0.50;0.50;;;;;;;19.66;64.37;96052.37;4397738;32;20212;-62
2022/06/18 06:02:59;;;;;;;0.50;0.50;;;;;;;19.69;64.54;96046.31;4401703;32;20215;-62
2022/06/18 06:05:25;;;;;;;1.30;0.83;;;;;;;19.76;63.85;96044.63;4396219;32;20200;-61
2022/06/18 06:07:51;;;;;;;0.40;0.40;;;;;;;19.90;65.36;96047.81;4399794;32;20196;-61
2022/06/18 06:13:17;;;;;;;0.63;0.63;;;;;;;20.03;63.75;96045.91;4397581;32;20226;-62
2022/06/18 06:15:43;;;;;;;0.40;0.40;;;;;;;20.07;64.40;96043.34;4401578;32;20184;-62
2022/06/18 06:18:11;;;;;;;0.30;0.30;;;;;;;20.16;63.32;96041.34;4392461;32;20256;-62
2022/06/18 06:20:39;;;;;;;0.40;0.40;;;;;;;20.27;63.39;96045.13;4399254;32;20200;-61
2022/06/18 06:23:05;;;;;;;0.77;0.77;;;;;;;20.40;61.24;96049.41;4393940;32;20207;-61
2022/06/18 06:25:32;;;;;;;0.40;0.40;;;;;;;20.48;62.85;96045.03;4397952;32;20293;-61
2022/06/18 06:27:58;;;;;;;0.10;0.10;;;;;;;20.59;61.18;96049.62;4399793;32;20233;-62
2022/06/18 06:30:25;;;;;;;0.40;0.40;;;;;;;20.71;61.54;96048.03;4398281;32;20216;-61
2022/06/18 06:32:50;;;;;;;0.73;0.73;;;;;;;20.79;61.42;96050.59;4397093;32;20293;-62
2022/06/18 06:35:16;;;;;;;0.77;0.77;;;;;;;20.88;63.28;96053.19;4393896;32;20197;-62
2022/06/18 06:37:42;;;;;;;0.50;0.50;;;;;;;20.95;62.03;96042.59;4397433;32;20184;-62
2022/06/18 06:40:08;;;;;;;0.73;0.73;;;;;;;21.06;59.68;96042.91;4394893;32;20187;-61
2022/06/18 06:42:45;;;;;;;0.50;0.50;;;;;;;21.19;59.62;96053.31;4399524;32;20184;-61
2022/06/18 06:45:17;;;;;;;0.60;0.60;;;;;;;21.31;59.24;96049.03;4385104;32;20188;-62
2022/06/18 06:47:43;;;;;;;0.50;0.50;;;;;;;21.38;60.46;96036.50;4390542;32;20192;-61
2022/06/18 06:50:10;;;;;;;4.93;4.07;;;;;;;21.45;59.64;96049.41;4407472;32;20188;-61
2022/06/18 06:52:48;;;;;;;0.73;0.73;;;;;;;21.50;60.95;96047.25;4405702;32;20196;-62
2022/06/18 06:58:04;;;;;;;0.50;0.50;;;;;;;21.73;58.64;96043.97;4401102;32;20270;-61
2022/06/18 07:00:38;;;;;;;0.87;0.87;;;;;;;21.87;57.51;96038.94;4391283;32;20247;-62
2022/06/18 07:03:03;;;;;;;0.60;0.60;;;;;;;22.05;56.85;96037.47;4393138;32;20204;-61
2022/06/18 07:06:13;;;;;;;0.60;0.60;;;;;;;22.41;54.37;96033.72;4397512;32;20242;-61
2022/06/18 07:08:39;;;;;;;0.30;0.30;;;;;;;22.60;54.59;96039.19;4405522;32;20276;-62
2022/06/18 07:11:06;;;;;;;0.60;0.60;;;;;;;22.73;54.08;96031.72;4403999;32;20229;-62
2022/06/18 07:13:31;;;;;;;0.70;0.70;;;;;;;22.81;53.01;96033.47;4396475;32;20275;-62
2022/06/18 07:15:58;;;;;;;0.60;0.60;;;;;;;22.89;53.39;96031.69;4400178;32;20188;-61
2022/06/18 07:18:31;;;;;;;1.23;1.23;;;;;;;23.09;51.20;96022.44;4406235;32;20180;-63
2022/06/18 07:20:57;;;;;;;0.43;0.43;;;;;;;23.33;51.40;96021.38;4397918;32;20195;-62
2022/06/18 07:23:23;;;;;;;1.13;1.13;;;;;;;23.38;51.29;96014.87;4397707;32;20282;-62
2022/06/18 07:25:48;;;;;;;0.77;0.77;;;;;;;23.43;50.87;96017.31;4389931;32;20184;-62
2022/06/18 07:28:14;;;;;;;0.77;0.77;;;;;;;23.39;50.53;96013.75;4399476;32;20183;-62
2022/06/18 07:30:40;;;;;;;0.83;0.83;;;;;;;23.33;50.62;96012.47;4405575;32;20244;-62
2022/06/18 07:33:09;;;;;;;0.30;0.30;;;;;;;23.33;49.77;96007.81;4401223;32;20210;-62
2022/06/18 07:35:36;;;;;;;0.30;0.30;;;;;;;23.33;49.55;96004.31;4395531;32;20176;-62
2022/06/18 07:38:02;;;;;;;0.70;0.70;;;;;;;23.33;50.36;96009.75;4397090;32;20188;-62
2022/06/18 07:40:33;;;;;;;0.90;0.90;;;;;;;23.35;49.61;96004.75;4394898;32;20299;-61
2022/06/18 07:43:00;;;;;;;1.90;1.67;;;;;;;23.40;49.63;95997.13;4401731;32;20188;-62
2022/06/18 07:45:25;;;;;;;1.10;1.10;;;;;;;23.48;49.65;96000.75;4398901;32;20192;-62
2022/06/18 07:47:52;;;;;;;1.47;1.47;;;;;;;23.47;50.34;95999.19;4392467;32;20287;-62
2022/06/18 07:50:19;;;;;;;1.17;1.17;;;;;;;23.56;50.95;95997.06;4400378;32;20176;-62
2022/06/18 07:52:45;;;;;;;0.60;0.60;;;;;;;23.60;51.18;95985.16;4374190;32;20264;-62
2022/06/18 07:55:27;;;;;;;0.40;0.40;;;;;;;23.60;50.99;95987.84;4408763;32;20180;-61
2022/06/18 07:57:52;;;;;;;0.40;0.40;;;;;;;23.63;49.94;95981.72;4391732;32;20192;-62
2022/06/18 08:00:20;;;;;;;1.10;1.10;;;;;;;23.67;49.03;95981.00;4384661;32;20195;-61
2022/06/18 08:02:47;;;;;;;0.90;0.83;;;;;;;23.77;47.96;95975.75;4395941;32;20193;-62
2022/06/18 08:05:19;;;;;;;0.97;0.97;;;;;;;23.79;47.08;95973.47;4396102;32;20188;-62
2022/06/18 08:07:45;;;;;;;0.50;0.40;;;;;;;23.81;47.23;95970.38;4413169;32;20194;-61
2022/06/18 08:10:11;;;;;;;0.50;0.50;;;;;;;23.85;47.83;95977.44;4398292;32;20246;-61
2022/06/18 08:12:37;;;;;;;0.57;0.57;;;;;;;23.89;47.58;95972.88;4413163;32;20184;-61
2022/06/18 08:15:05;;;;;;;2.47;0.80;;;;;;;23.93;47.08;95972.91;4407069;32;20275;-62
2022/06/18 08:17:30;;;;;;;0.30;0.30;;;;;;;23.91;47.19;95973.25;4405513;32;20239;-61
2022/06/18 08:19:56;;;;;;;0.20;0.20;;;;;;;23.98;46.78;95969.87;4397091;32;20198;-61
2022/06/18 08:22:22;;;;;;;0.43;0.43;;;;;;;24.00;46.48;95975.72;4407659;32;20210;-62
2022/06/18 08:24:48;;;;;;;0.30;0.30;;;;;;;24.03;45.74;95971.53;4397598;32;20188;-61
2022/06/18 08:27:14;;;;;;;0.63;0.60;;;;;;;24.11;44.96;95970.50;4399948;32;20203;-61
2022/06/18 08:29:40;;;;;;;0.47;0.47;;;;;;;24.14;44.73;95967.03;4397722;32;20180;-62
2022/06/18 08:32:05;;;;;;;1.27;0.53;;;;;;;24.18;44.89;95959.72;4400915;32;20238;-62
2022/06/18 08:34:31;;;;;;;0.20;0.20;;;;;;;24.20;46.74;95960.16;4383742;32;21559;-62
2022/06/18 08:36:57;;;;;;;0.30;0.30;;;;;;;24.19;46.30;95953.94;4354197;32;20203;-61
2022/06/18 08:39:22;;;;;;;0.50;0.50;;;;;;;24.27;43.59;95963.00;4380090;32;20180;-62
2022/06/18 08:42:15;;;;;;;0.30;0.30;;;;;;;24.36;43.07;95963.50;4392721;32;20185;-62
2022/06/18 08:44:49;;;;;;;3.30;0.50;;;;;;;24.52;44.60;95960.66;4398569;32;20183;-62
2022/06/18 08:47:40;;;;;;;0.20;0.20;;;;;;;24.48;46.16;95955.19;4398857;32;20184;-61
2022/06/18 08:50:25;;;;;;;0.33;0.33;;;;;;;24.53;46.09;95962.19;4398580;32;20188;-62
2022/06/18 08:53:19;;;;;;;0.83;0.63;;;;;;;24.56;46.21;95956.81;4394617;32;20220;-62
2022/06/18 08:55:57;;;;;;;0.47;0.47;;;;;;;24.62;45.21;95949.94;4389958;32;20199;-62
2022/06/18 08:59:09;;;;;;;0.50;0.50;;;;;;;24.61;44.36;95951.06;4403846;32;20195;-62
2022/06/18 09:01:50;;;;;;;0.50;0.50;;;;;;;24.65;44.93;95949.19;4372355;32;20180;-61
2022/06/18 09:04:33;;;;;;;0.70;0.70;;;;;;;24.72;45.92;95955.88;4403347;32;20256;-62
2022/06/18 09:07:26;;;;;;;0.30;0.30;;;;;;;24.73;42.44;95955.50;4401933;32;20188;-62
2022/06/18 09:10:09;;;;;;;0.40;0.40;;;;;;;24.80;40.55;95954.78;4391926;32;20243;-62
2022/06/18 09:12:43;;;;;;;1.93;1.83;;;;;;;24.88;39.22;95953.75;4406274;32;20203;-62
2022/06/18 09:15:15;;;;;;;1.73;1.63;;;;;;;24.90;40.21;95946.78;4395836;32;20181;-62
2022/06/18 09:17:50;;;;;;;0.70;0.70;;;;;;;24.99;39.99;95944.59;4377325;32;20282;-62
2022/06/18 09:20:37;;;;;;;0.53;0.53;;;;;;;24.99;40.93;95946.53;4371150;32;20191;-62
2022/06/18 09:23:14;;;;;;;1.70;0.63;;;;;;;25.06;38.20;95946.59;4380118;32;20202;-62
2022/06/18 09:25:44;;;;;;;0.50;0.50;;;;;;;25.10;37.26;95942.00;4393120;32;20278;-61
2022/06/18 09:28:18;;;;;;;0.43;0.43;;;;;;;25.21;37.16;95942.88;4391291;32;20184;-62
2022/06/18 09:30:48;;;;;;;0.47;0.30;;;;;;;25.23;37.51;95943.31;4389665;32;20282;-62
2022/06/18 09:33:22;;;;;;;0.10;0.10;;;;;;;25.29;36.20;95944.53;4395226;32;20180;-62
2022/06/18 09:35:57;;;;;;;0.77;0.40;;;;;;;25.24;37.15;95944.88;4381306;32;20196;-62
2022/06/18 09:38:49;;;;;;;0.17;0.17;;;;;;;25.28;37.98;95940.25;4383361;32;20235;-62
2022/06/18 09:41:21;;;;;;;1.43;0.30;;;;;;;25.37;38.03;95941.88;4381177;32;20185;-61
2022/06/18 09:44:01;;;;;;;0.20;0.20;;;;;;;25.44;39.13;95937.28;4394102;32;20199;-62
2022/06/18 09:46:36;;;;;;;0.33;0.23;;;;;;;25.45;37.11;95933.44;4380523;32;20184;-62
2022/06/18 09:49:02;;;;;;;0.30;0.30;;;;;;;25.64;38.49;95937.91;4380958;32;20299;-62
2022/06/18 09:51:47;;;;;;;0.33;0.27;;;;;;;25.72;38.53;95936.81;4390516;32;20188;-62
2022/06/18 09:54:17;;;;;;;0.43;0.43;;;;;;;25.77;38.61;95930.25;4378480;32;20176;-62
2022/06/18 09:56:57;;;;;;;1.53;1.53;;;;;;;25.89;37.72;95930.72;4379777;32;20223;-62
2022/06/18 09:59:32;;;;;;;0.40;0.40;;;;;;;25.99;38.86;95921.84;4385228;32;20227;-62
2022/06/18 10:02:00;;;;;;;1.10;0.60;;;;;;;26.14;38.44;95921.97;4390128;32;20197;-62
2022/06/18 10:07:21;;;;;;;0.77;0.73;;;;;;;26.30;38.05;95920.56;4377233;32;20272;-62
2022/06/18 10:10:15;;;;;;;1.50;0.60;;;;;;;26.42;38.17;95916.72;4385078;32;20188;-62
2022/06/18 10:12:45;;;;;;;0.87;0.87;;;;;;;26.44;38.32;95911.66;4393103;32;20252;-62
2022/06/18 10:15:14;;;;;;;1.70;0.80;;;;;;;26.48;38.92;95915.19;4382457;32;20201;-62
2022/06/18 10:18:04;;;;;;;0.50;0.50;;;;;;;26.43;39.29;95921.00;4375125;32;20227;-62
2022/06/18 10:21:17;;;;;;;0.37;0.37;;;;;;;26.45;39.50;95907.00;4384034;32;20203;-62
2022/06/18 10:24:19;;;;;;;0.30;0.30;;;;;;;26.57;37.13;95909.41;4349691;32;20193;-62
2022/06/18 10:27:12;;;;;;;0.33;0.33;;;;;;;26.54;36.43;95902.78;4378627;32;20236;-63
2022/06/18 10:29:49;;;;;;;0.30;0.30;;;;;;;26.62;34.79;95903.59;4378733;32;20244;-62
2022/06/18 10:32:31;;;;;;;0.60;0.60;;;;;;;26.78;34.28;95895.13;4382211;32;20199;-62
2022/06/18 10:35:21;;;;;;;0.33;0.33;;;;;;;26.80;36.15;95898.25;4388030;32;20184;-62
2022/06/18 10:38:02;;;;;;;3.10;0.70;;;;;;;26.76;37.58;95892.78;4395644;32;20176;-62
2022/06/18 10:40:55;;;;;;;1.00;1.00;;;;;;;26.77;38.27;95888.09;4376263;32;20282;-62
2022/06/18 10:43:26;;;;;;;0.50;0.50;;;;;;;26.82;37.54;95893.16;4384119;32;20238;-62
2022/06/18 10:45:56;;;;;;;0.40;0.40;;;;;;;26.84;37.72;95890.84;4381236;32;20224;-62
2022/06/18 10:48:28;;;;;;;0.63;0.63;;;;;;;26.94;37.50;95876.47;4382277;32;20192;-62
2022/06/18 10:50:55;;;;;;;0.30;0.30;;;;;;;26.98;37.58;95878.09;4393930;32;20192;-62
2022/06/18 10:53:26;;;;;;;0.67;0.67;;;;;;;26.96;37.50;95876.91;4373585;32;20233;-61
2022/06/18 10:56:16;;;;;;;0.80;0.80;;;;;;;26.98;36.29;95872.63;4399836;32;20192;-62
2022/06/18 10:58:56;;;;;;;0.30;0.30;;;;;;;26.94;36.89;95873.75;4371795;32;20200;-62
2022/06/18 11:01:31;;;;;;;0.70;0.70;;;;;;;27.02;35.96;95867.19;4378712;32;20211;-62
2022/06/18 11:04:00;;;;;;;0.50;0.50;;;;;;;27.06;36.08;95870.69;4378016;32;20196;-62
2022/06/18 11:06:27;;;;;;;0.77;0.77;;;;;;;27.06;35.92;95870.69;4386728;32;20208;-62
2022/06/18 11:08:58;;;;;;;0.47;0.47;;;;;;;27.13;36.03;95872.66;4390161;32;20220;-62
2022/06/18 11:11:28;;;;;;;0.47;0.40;;;;;;;27.13;35.65;95870.72;4386941;32;20242;-62
2022/06/18 11:13:54;;;;;;;0.63;0.63;;;;;;;27.21;34.58;95866.84;4382209;32;20219;-62
2022/06/18 11:16:21;;;;;;;1.50;1.50;;;;;;;27.33;35.19;95865.69;4381354;32;20185;-62
2022/06/18 11:18:56;;;;;;;1.10;1.10;;;;;;;27.28;36.26;95869.56;4377569;32;20195;-62
2022/06/18 11:21:40;;;;;;;5.63;0.53;;;;;;;27.24;34.88;95870.72;4376549;32;20222;-62
2022/06/18 11:24:16;;;;;;;0.50;0.50;;;;;;;27.18;35.49;95862.16;4371960;32;20228;-62
2022/06/18 11:26:55;;;;;;;0.70;0.70;;;;;;;27.25;36.13;95872.28;4388368;32;20192;-62
2022/06/18 11:29:35;;;;;;;0.33;0.33;;;;;;;27.20;35.81;95868.00;4381801;32;20310;-62
2022/06/18 11:32:22;;;;;;;0.27;0.27;;;;;;;27.13;35.08;95856.31;4381416;32;20450;-62
2022/06/18 11:35:04;;;;;;;0.50;0.50;;;;;;;27.12;33.99;95858.25;4372107;32;20189;-62
2022/06/18 11:37:32;;;;;;;0.23;0.23;;;;;;;27.31;32.79;95849.72;4384323;32;20235;-62
2022/06/18 11:40:03;;;;;;;0.30;0.30;;;;;;;27.38;33.16;95847.00;4375609;32;20185;-62
2022/06/18 11:42:40;;;;;;;0.40;0.40;;;;;;;27.42;33.76;95844.28;4369839;32;20197;-62
2022/06/18 11:45:06;;;;;;;1.83;1.73;;;;;;;27.48;33.56;95839.19;4372439;32;20180;-62
2022/06/18 11:48:00;;;;;;;0.70;0.70;;;;;;;27.48;33.49;95850.09;4386216;32;20293;-62
2022/06/18 11:50:48;;;;;;;0.70;0.70;;;;;;;27.55;34.31;95842.72;4381557;32;20188;-62
2022/06/18 11:53:40;;;;;;;0.53;0.53;;;;;;;27.50;35.08;95836.88;4382964;32;20204;-62
2022/06/18 11:56:20;;;;;;;0.43;0.43;;;;;;;27.56;35.39;95835.31;4381277;32;20193;-62
2022/06/18 11:58:52;;;;;;;0.30;0.30;;;;;;;27.52;36.12;95834.53;4382193;32;20200;-62
2022/06/18 12:01:39;;;;;;;0.33;0.33;;;;;;;27.53;33.40;95833.38;4367333;32;20203;-62
2022/06/18 12:04:11;;;;;;;0.73;0.73;;;;;;;27.63;32.62;95832.63;4371676;32;20189;-62
2022/06/18 12:06:42;;;;;;;0.40;0.40;;;;;;;27.70;32.04;95829.88;4379595;32;20192;-62
2022/06/18 12:09:12;;;;;;;0.97;0.80;;;;;;;27.76;31.65;95822.88;4369501;32;20198;-62
2022/06/18 12:11:37;;;;;;;1.13;1.13;;;;;;;27.75;31.72;95815.84;4359505;32;20193;-62